sensor_id;sensor_type;location;lat;lon;timestamp;P1;durP1;ratioP1;P2;durP2;ratioP2
43996;SDS011;34318;45.818;15.964;2023-05-19T00:01:27;7.85;;;6.53;;
43996;SDS011;34318;45.818;15.964;2023-05-19T00:03:56;7.05;;;6.35;;
43996;SDS011;34318;45.818;15.964;2023-05-19T00:06:25;6.90;;;6.20;;
43996;SDS011;34318;45.818;15.964;2023-05-19T00:08:59;7.78;;;5.88;;
43996;SDS011;34318;45.818;15.964;2023-05-19T00:11:27;6.63;;;5.97;;
43996;SDS011;34318;45.818;15.964;2023-05-19T00:13:57;7.82;;;6.85;;
43996;SDS011;34318;45.818;15.964;2023-05-19T00:16:26;7.70;;;6.18;;
43996;SDS011;34318;45.818;15.964;2023-05-19T00:18:54;8.05;;;6.22;;
43996;SDS011;34318;45.818;15.964;2023-05-19T00:21:22;8.30;;;6.93;;
43996;SDS011;34318;45.818;15.964;2023-05-19T00:23:49;7.50;;;5.57;;
43996;SDS011;34318;45.818;15.964;2023-05-19T00:26:16;7.05;;;6.22;;
43996;SDS011;34318;45.818;15.964;2023-05-19T00:28:44;7.25;;;5.68;;
43996;SDS011;34318;45.818;15.964;2023-05-19T00:31:11;7.32;;;5.53;;
43996;SDS011;34318;45.818;15.964;2023-05-19T00:33:38;6.78;;;5.97;;
43996;SDS011;34318;45.818;15.964;2023-05-19T00:36:05;8.13;;;6.60;;
43996;SDS011;34318;45.818;15.964;2023-05-19T00:38:34;6.57;;;5.95;;
43996;SDS011;34318;45.818;15.964;2023-05-19T00:41:02;6.30;;;5.38;;
43996;SDS011;34318;45.818;15.964;2023-05-19T00:43:30;6.70;;;6.00;;
43996;SDS011;34318;45.818;15.964;2023-05-19T00:45:59;7.13;;;5.70;;
43996;SDS011;34318;45.818;15.964;2023-05-19T00:48:26;6.07;;;5.47;;
43996;SDS011;34318;45.818;15.964;2023-05-19T00:50:54;6.95;;;6.18;;
43996;SDS011;34318;45.818;15.964;2023-05-19T00:53:27;7.47;;;5.78;;
43996;SDS011;34318;45.818;15.964;2023-05-19T00:55:54;6.53;;;5.82;;
43996;SDS011;34318;45.818;15.964;2023-05-19T00:58:21;7.53;;;5.70;;
43996;SDS011;34318;45.818;15.964;2023-05-19T01:00:57;6.90;;;6.20;;
43996;SDS011;34318;45.818;15.964;2023-05-19T01:03:30;6.07;;;5.50;;
43996;SDS011;34318;45.818;15.964;2023-05-19T01:05:57;7.55;;;5.80;;
43996;SDS011;34318;45.818;15.964;2023-05-19T01:08:33;6.47;;;5.88;;
43996;SDS011;34318;45.818;15.964;2023-05-19T01:11:00;6.30;;;5.43;;
43996;SDS011;34318;45.818;15.964;2023-05-19T01:13:28;6.00;;;5.15;;
43996;SDS011;34318;45.818;15.964;2023-05-19T01:18:26;5.88;;;5.30;;
43996;SDS011;34318;45.818;15.964;2023-05-19T01:23:50;6.43;;;5.82;;
43996;SDS011;34318;45.818;15.964;2023-05-19T01:26:40;6.60;;;5.95;;
43996;SDS011;34318;45.818;15.964;2023-05-19T01:29:22;5.68;;;5.18;;
43996;SDS011;34318;45.818;15.964;2023-05-19T01:31:54;8.18;;;5.28;;
43996;SDS011;34318;45.818;15.964;2023-05-19T01:34:23;6.93;;;6.00;;
43996;SDS011;34318;45.818;15.964;2023-05-19T01:36:53;7.30;;;5.35;;
43996;SDS011;34318;45.818;15.964;2023-05-19T01:39:20;6.75;;;5.10;;
43996;SDS011;34318;45.818;15.964;2023-05-19T01:41:48;5.93;;;5.32;;
43996;SDS011;34318;45.818;15.964;2023-05-19T01:44:16;5.80;;;4.90;;
43996;SDS011;34318;45.818;15.964;2023-05-19T01:46:44;7.40;;;5.43;;
43996;SDS011;34318;45.818;15.964;2023-05-19T01:49:11;5.68;;;5.07;;
43996;SDS011;34318;45.818;15.964;2023-05-19T01:51:39;5.82;;;5.32;;
43996;SDS011;34318;45.818;15.964;2023-05-19T01:54:06;5.45;;;4.95;;
43996;SDS011;34318;45.818;15.964;2023-05-19T01:56:40;5.35;;;4.72;;
43996;SDS011;34318;45.818;15.964;2023-05-19T01:59:15;6.05;;;5.45;;
43996;SDS011;34318;45.818;15.964;2023-05-19T02:01:48;5.82;;;5.10;;
43996;SDS011;34318;45.818;15.964;2023-05-19T02:04:25;7.45;;;4.90;;
43996;SDS011;34318;45.818;15.964;2023-05-19T02:14:34;5.28;;;4.50;;
43996;SDS011;34318;45.818;15.964;2023-05-19T02:17:03;5.50;;;5.00;;
43996;SDS011;34318;45.818;15.964;2023-05-19T02:19:32;5.88;;;5.28;;
43996;SDS011;34318;45.818;15.964;2023-05-19T02:21:59;7.95;;;5.10;;
43996;SDS011;34318;45.818;15.964;2023-05-19T02:24:27;7.07;;;5.25;;
43996;SDS011;34318;45.818;15.964;2023-05-19T02:26:54;5.20;;;4.70;;
43996;SDS011;34318;45.818;15.964;2023-05-19T02:29:21;5.45;;;4.38;;
43996;SDS011;34318;45.818;15.964;2023-05-19T02:31:48;7.57;;;5.20;;
43996;SDS011;34318;45.818;15.964;2023-05-19T02:34:16;4.80;;;4.40;;
43996;SDS011;34318;45.818;15.964;2023-05-19T02:36:43;5.47;;;4.78;;
43996;SDS011;34318;45.818;15.964;2023-05-19T02:39:10;5.80;;;4.78;;
43996;SDS011;34318;45.818;15.964;2023-05-19T02:41:38;6.57;;;5.22;;
43996;SDS011;34318;45.818;15.964;2023-05-19T02:44:05;5.55;;;4.72;;
43996;SDS011;34318;45.818;15.964;2023-05-19T02:46:33;4.88;;;4.30;;
43996;SDS011;34318;45.818;15.964;2023-05-19T02:49:00;5.47;;;4.93;;
43996;SDS011;34318;45.818;15.964;2023-05-19T02:51:27;6.22;;;4.63;;
43996;SDS011;34318;45.818;15.964;2023-05-19T02:53:54;5.63;;;5.03;;
43996;SDS011;34318;45.818;15.964;2023-05-19T02:56:21;5.05;;;4.43;;
43996;SDS011;34318;45.818;15.964;2023-05-19T02:58:48;6.53;;;4.72;;
43996;SDS011;34318;45.818;15.964;2023-05-19T03:01:16;6.15;;;4.43;;
43996;SDS011;34318;45.818;15.964;2023-05-19T03:03:43;5.03;;;4.53;;
43996;SDS011;34318;45.818;15.964;2023-05-19T03:06:11;5.40;;;4.90;;
43996;SDS011;34318;45.818;15.964;2023-05-19T03:08:38;4.80;;;4.30;;
43996;SDS011;34318;45.818;15.964;2023-05-19T03:11:07;6.40;;;5.35;;
43996;SDS011;34318;45.818;15.964;2023-05-19T03:13:34;4.75;;;4.22;;
43996;SDS011;34318;45.818;15.964;2023-05-19T03:16:02;5.28;;;4.72;;
43996;SDS011;34318;45.818;15.964;2023-05-19T03:18:29;5.70;;;5.13;;
43996;SDS011;34318;45.818;15.964;2023-05-19T03:20:56;6.15;;;4.68;;
43996;SDS011;34318;45.818;15.964;2023-05-19T03:23:24;6.43;;;4.70;;
43996;SDS011;34318;45.818;15.964;2023-05-19T03:25:51;4.82;;;4.43;;
43996;SDS011;34318;45.818;15.964;2023-05-19T03:28:21;5.20;;;4.50;;
43996;SDS011;34318;45.818;15.964;2023-05-19T03:30:49;4.93;;;4.38;;
43996;SDS011;34318;45.818;15.964;2023-05-19T03:33:16;5.35;;;4.43;;
43996;SDS011;34318;45.818;15.964;2023-05-19T03:35:43;5.13;;;4.20;;
43996;SDS011;34318;45.818;15.964;2023-05-19T03:38:11;6.13;;;4.53;;
43996;SDS011;34318;45.818;15.964;2023-05-19T03:40:38;4.78;;;4.25;;
43996;SDS011;34318;45.818;15.964;2023-05-19T03:43:06;5.05;;;4.60;;
43996;SDS011;34318;45.818;15.964;2023-05-19T03:45:33;4.43;;;4.00;;
43996;SDS011;34318;45.818;15.964;2023-05-19T03:48:01;5.05;;;4.45;;
43996;SDS011;34318;45.818;15.964;2023-05-19T03:50:28;4.72;;;4.32;;
43996;SDS011;34318;45.818;15.964;2023-05-19T03:52:57;4.70;;;4.20;;
43996;SDS011;34318;45.818;15.964;2023-05-19T03:55:24;5.20;;;4.70;;
43996;SDS011;34318;45.818;15.964;2023-05-19T03:57:51;5.00;;;4.50;;
43996;SDS011;34318;45.818;15.964;2023-05-19T04:00:18;4.45;;;4.05;;
43996;SDS011;34318;45.818;15.964;2023-05-19T04:02:46;4.75;;;4.28;;
43996;SDS011;34318;45.818;15.964;2023-05-19T04:05:13;5.53;;;4.25;;
43996;SDS011;34318;45.818;15.964;2023-05-19T04:07:40;4.63;;;4.18;;
43996;SDS011;34318;45.818;15.964;2023-05-19T04:10:08;5.93;;;4.20;;
43996;SDS011;34318;45.818;15.964;2023-05-19T04:12:35;4.95;;;4.45;;
43996;SDS011;34318;45.818;15.964;2023-05-19T04:15:03;4.93;;;4.53;;
43996;SDS011;34318;45.818;15.964;2023-05-19T04:17:31;6.10;;;4.28;;
43996;SDS011;34318;45.818;15.964;2023-05-19T04:19:58;5.32;;;4.20;;
43996;SDS011;34318;45.818;15.964;2023-05-19T04:22:26;5.18;;;4.10;;
43996;SDS011;34318;45.818;15.964;2023-05-19T04:24:53;5.07;;;4.57;;
43996;SDS011;34318;45.818;15.964;2023-05-19T04:27:21;5.40;;;4.90;;
43996;SDS011;34318;45.818;15.964;2023-05-19T04:29:48;4.90;;;4.13;;
43996;SDS011;34318;45.818;15.964;2023-05-19T04:32:16;4.72;;;4.22;;
43996;SDS011;34318;45.818;15.964;2023-05-19T04:34:43;4.78;;;4.28;;
43996;SDS011;34318;45.818;15.964;2023-05-19T04:37:11;6.95;;;4.40;;
43996;SDS011;34318;45.818;15.964;2023-05-19T04:39:41;6.88;;;4.05;;
43996;SDS011;34318;45.818;15.964;2023-05-19T04:42:10;5.05;;;4.65;;
43996;SDS011;34318;45.818;15.964;2023-05-19T04:44:38;5.22;;;4.35;;
43996;SDS011;34318;45.818;15.964;2023-05-19T04:47:06;4.68;;;4.28;;
43996;SDS011;34318;45.818;15.964;2023-05-19T04:49:34;7.30;;;3.92;;
43996;SDS011;34318;45.818;15.964;2023-05-19T04:52:05;8.98;;;4.90;;
43996;SDS011;34318;45.818;15.964;2023-05-19T04:54:33;5.85;;;4.35;;
43996;SDS011;34318;45.818;15.964;2023-05-19T04:57:00;10.88;;;5.78;;
43996;SDS011;34318;45.818;15.964;2023-05-19T04:59:27;6.93;;;4.97;;
43996;SDS011;34318;45.818;15.964;2023-05-19T05:01:55;8.23;;;5.30;;
43996;SDS011;34318;45.818;15.964;2023-05-19T05:04:22;6.03;;;5.43;;
43996;SDS011;34318;45.818;15.964;2023-05-19T05:06:49;6.82;;;5.60;;
43996;SDS011;34318;45.818;15.964;2023-05-19T05:09:17;8.20;;;6.15;;
43996;SDS011;34318;45.818;15.964;2023-05-19T05:11:45;10.07;;;6.28;;
43996;SDS011;34318;45.818;15.964;2023-05-19T05:14:12;10.45;;;8.25;;
43996;SDS011;34318;45.818;15.964;2023-05-19T05:16:40;11.07;;;8.60;;
43996;SDS011;34318;45.818;15.964;2023-05-19T05:19:07;15.93;;;9.52;;
43996;SDS011;34318;45.818;15.964;2023-05-19T05:21:35;12.18;;;9.82;;
43996;SDS011;34318;45.818;15.964;2023-05-19T05:24:02;13.30;;;9.68;;
43996;SDS011;34318;45.818;15.964;2023-05-19T05:26:29;14.32;;;9.27;;
43996;SDS011;34318;45.818;15.964;2023-05-19T05:28:59;12.35;;;10.13;;
43996;SDS011;34318;45.818;15.964;2023-05-19T05:31:26;12.18;;;10.45;;
43996;SDS011;34318;45.818;15.964;2023-05-19T05:33:54;11.07;;;9.93;;
43996;SDS011;34318;45.818;15.964;2023-05-19T05:36:21;12.85;;;9.85;;
43996;SDS011;34318;45.818;15.964;2023-05-19T05:38:48;11.32;;;9.55;;
43996;SDS011;34318;45.818;15.964;2023-05-19T05:41:15;12.70;;;8.93;;
43996;SDS011;34318;45.818;15.964;2023-05-19T05:43:43;10.27;;;9.10;;
43996;SDS011;34318;45.818;15.964;2023-05-19T05:46:10;10.00;;;7.93;;
43996;SDS011;34318;45.818;15.964;2023-05-19T05:48:37;9.27;;;7.93;;
43996;SDS011;34318;45.818;15.964;2023-05-19T05:51:04;11.45;;;9.18;;
43996;SDS011;34318;45.818;15.964;2023-05-19T05:53:32;12.68;;;8.48;;
43996;SDS011;34318;45.818;15.964;2023-05-19T05:56:02;9.20;;;8.27;;
43996;SDS011;34318;45.818;15.964;2023-05-19T05:58:29;8.18;;;7.25;;
43996;SDS011;34318;45.818;15.964;2023-05-19T06:00:58;11.13;;;7.78;;
43996;SDS011;34318;45.818;15.964;2023-05-19T06:03:27;12.20;;;9.07;;
43996;SDS011;34318;45.818;15.964;2023-05-19T06:05:54;12.15;;;8.02;;
43996;SDS011;34318;45.818;15.964;2023-05-19T06:08:21;9.07;;;7.55;;
43996;SDS011;34318;45.818;15.964;2023-05-19T06:10:48;8.98;;;7.70;;
43996;SDS011;34318;45.818;15.964;2023-05-19T06:13:16;7.80;;;7.00;;
43996;SDS011;34318;45.818;15.964;2023-05-19T06:15:47;8.73;;;7.93;;
43996;SDS011;34318;45.818;15.964;2023-05-19T06:18:14;8.55;;;7.35;;
43996;SDS011;34318;45.818;15.964;2023-05-19T06:20:41;8.23;;;7.35;;
43996;SDS011;34318;45.818;15.964;2023-05-19T06:23:09;8.40;;;6.90;;
43996;SDS011;34318;45.818;15.964;2023-05-19T06:25:36;8.30;;;6.88;;
43996;SDS011;34318;45.818;15.964;2023-05-19T06:28:03;7.55;;;6.70;;
43996;SDS011;34318;45.818;15.964;2023-05-19T06:30:31;9.02;;;6.28;;
43996;SDS011;34318;45.818;15.964;2023-05-19T06:32:58;7.88;;;6.82;;
43996;SDS011;34318;45.818;15.964;2023-05-19T06:35:26;8.63;;;6.75;;
43996;SDS011;34318;45.818;15.964;2023-05-19T06:37:53;9.65;;;6.45;;
43996;SDS011;34318;45.818;15.964;2023-05-19T06:40:23;9.07;;;6.53;;
43996;SDS011;34318;45.818;15.964;2023-05-19T06:42:50;8.00;;;6.15;;
43996;SDS011;34318;45.818;15.964;2023-05-19T06:45:17;6.55;;;5.93;;
43996;SDS011;34318;45.818;15.964;2023-05-19T06:47:47;7.70;;;6.35;;
43996;SDS011;34318;45.818;15.964;2023-05-19T06:50:15;7.43;;;6.63;;
43996;SDS011;34318;45.818;15.964;2023-05-19T06:52:42;6.93;;;6.22;;
43996;SDS011;34318;45.818;15.964;2023-05-19T06:55:09;6.55;;;5.88;;
43996;SDS011;34318;45.818;15.964;2023-05-19T06:57:36;7.53;;;5.72;;
43996;SDS011;34318;45.818;15.964;2023-05-19T07:00:04;8.07;;;5.80;;
43996;SDS011;34318;45.818;15.964;2023-05-19T07:02:34;6.47;;;5.38;;
43996;SDS011;34318;45.818;15.964;2023-05-19T07:05:01;6.88;;;6.22;;
43996;SDS011;34318;45.818;15.964;2023-05-19T07:07:28;6.60;;;6.00;;
43996;SDS011;34318;45.818;15.964;2023-05-19T07:09:56;8.00;;;5.80;;
43996;SDS011;34318;45.818;15.964;2023-05-19T07:12:23;6.65;;;5.53;;
43996;SDS011;34318;45.818;15.964;2023-05-19T07:14:51;6.95;;;5.72;;
43996;SDS011;34318;45.818;15.964;2023-05-19T07:17:19;6.18;;;5.32;;
43996;SDS011;34318;45.818;15.964;2023-05-19T07:19:46;6.07;;;5.47;;
43996;SDS011;34318;45.818;15.964;2023-05-19T07:22:13;5.78;;;5.03;;
43996;SDS011;34318;45.818;15.964;2023-05-19T07:24:41;6.03;;;5.50;;
43996;SDS011;34318;45.818;15.964;2023-05-19T07:27:08;5.90;;;5.40;;
43996;SDS011;34318;45.818;15.964;2023-05-19T07:29:36;6.25;;;5.65;;
43996;SDS011;34318;45.818;15.964;2023-05-19T07:32:03;5.68;;;5.18;;
43996;SDS011;34318;45.818;15.964;2023-05-19T07:34:31;5.25;;;4.82;;
43996;SDS011;34318;45.818;15.964;2023-05-19T07:36:58;5.30;;;4.80;;
43996;SDS011;34318;45.818;15.964;2023-05-19T07:39:25;6.40;;;5.13;;
43996;SDS011;34318;45.818;15.964;2023-05-19T07:41:54;5.95;;;5.45;;
43996;SDS011;34318;45.818;15.964;2023-05-19T07:44:22;6.70;;;5.15;;
43996;SDS011;34318;45.818;15.964;2023-05-19T07:46:49;5.68;;;5.18;;
43996;SDS011;34318;45.818;15.964;2023-05-19T07:49:16;6.15;;;4.75;;
43996;SDS011;34318;45.818;15.964;2023-05-19T07:51:43;5.65;;;5.00;;
43996;SDS011;34318;45.818;15.964;2023-05-19T07:54:11;5.72;;;5.13;;
43996;SDS011;34318;45.818;15.964;2023-05-19T07:56:38;5.50;;;5.00;;
43996;SDS011;34318;45.818;15.964;2023-05-19T07:59:05;5.65;;;5.15;;
43996;SDS011;34318;45.818;15.964;2023-05-19T08:01:33;5.32;;;4.82;;
43996;SDS011;34318;45.818;15.964;2023-05-19T08:04:00;5.95;;;5.40;;
43996;SDS011;34318;45.818;15.964;2023-05-19T08:06:27;5.93;;;5.32;;
43996;SDS011;34318;45.818;15.964;2023-05-19T08:08:55;5.25;;;4.75;;
43996;SDS011;34318;45.818;15.964;2023-05-19T08:11:22;4.82;;;4.43;;
43996;SDS011;34318;45.818;15.964;2023-05-19T08:13:49;5.07;;;4.53;;
43996;SDS011;34318;45.818;15.964;2023-05-19T08:16:16;5.53;;;5.03;;
43996;SDS011;34318;45.818;15.964;2023-05-19T08:18:44;5.78;;;5.15;;
43996;SDS011;34318;45.818;15.964;2023-05-19T08:21:11;4.80;;;4.40;;
43996;SDS011;34318;45.818;15.964;2023-05-19T08:23:38;5.68;;;5.10;;
43996;SDS011;34318;45.818;15.964;2023-05-19T08:26:06;5.20;;;4.78;;
43996;SDS011;34318;45.818;15.964;2023-05-19T08:28:33;4.90;;;4.50;;
43996;SDS011;34318;45.818;15.964;2023-05-19T08:31:00;4.70;;;4.20;;
43996;SDS011;34318;45.818;15.964;2023-05-19T08:33:28;5.32;;;4.82;;
43996;SDS011;34318;45.818;15.964;2023-05-19T08:35:55;4.88;;;4.47;;
43996;SDS011;34318;45.818;15.964;2023-05-19T08:38:25;5.30;;;4.80;;
43996;SDS011;34318;45.818;15.964;2023-05-19T08:40:53;5.32;;;4.20;;
43996;SDS011;34318;45.818;15.964;2023-05-19T08:43:20;5.25;;;4.80;;
43996;SDS011;34318;45.818;15.964;2023-05-19T08:45:47;4.47;;;4.07;;
43996;SDS011;34318;45.818;15.964;2023-05-19T08:48:15;5.30;;;4.65;;
43996;SDS011;34318;45.818;15.964;2023-05-19T08:50:44;5.18;;;4.57;;
43996;SDS011;34318;45.818;15.964;2023-05-19T08:53:13;5.03;;;4.55;;
43996;SDS011;34318;45.818;15.964;2023-05-19T08:58:29;5.63;;;4.68;;
43996;SDS011;34318;45.818;15.964;2023-05-19T09:00:56;4.95;;;4.45;;
43996;SDS011;34318;45.818;15.964;2023-05-19T09:03:25;4.85;;;4.45;;
43996;SDS011;34318;45.818;15.964;2023-05-19T09:05:54;5.35;;;4.85;;
43996;SDS011;34318;45.818;15.964;2023-05-19T09:08:21;4.45;;;4.10;;
43996;SDS011;34318;45.818;15.964;2023-05-19T09:10:48;5.70;;;4.55;;
43996;SDS011;34318;45.818;15.964;2023-05-19T09:13:16;5.47;;;4.97;;
43996;SDS011;34318;45.818;15.964;2023-05-19T09:15:43;4.90;;;4.50;;
43996;SDS011;34318;45.818;15.964;2023-05-19T09:18:11;4.50;;;4.10;;
43996;SDS011;34318;45.818;15.964;2023-05-19T09:20:40;5.10;;;4.70;;
43996;SDS011;34318;45.818;15.964;2023-05-19T09:23:11;4.60;;;4.20;;
43996;SDS011;34318;45.818;15.964;2023-05-19T09:25:49;5.40;;;4.90;;
43996;SDS011;34318;45.818;15.964;2023-05-19T09:33:27;5.10;;;4.65;;
43996;SDS011;34318;45.818;15.964;2023-05-19T09:35:54;5.05;;;4.65;;
43996;SDS011;34318;45.818;15.964;2023-05-19T09:38:25;4.93;;;4.43;;
43996;SDS011;34318;45.818;15.964;2023-05-19T09:40:54;5.22;;;4.70;;
43996;SDS011;34318;45.818;15.964;2023-05-19T09:43:22;5.55;;;4.80;;
43996;SDS011;34318;45.818;15.964;2023-05-19T09:45:59;5.45;;;4.72;;
43996;SDS011;34318;45.818;15.964;2023-05-19T09:48:27;5.72;;;4.90;;
43996;SDS011;34318;45.818;15.964;2023-05-19T09:50:54;5.97;;;4.57;;
43996;SDS011;34318;45.818;15.964;2023-05-19T09:53:23;5.00;;;4.20;;
43996;SDS011;34318;45.818;15.964;2023-05-19T09:55:53;5.60;;;4.28;;
43996;SDS011;34318;45.818;15.964;2023-05-19T09:58:22;6.82;;;5.00;;
43996;SDS011;34318;45.818;15.964;2023-05-19T10:00:50;7.13;;;3.97;;
43996;SDS011;34318;45.818;15.964;2023-05-19T10:03:17;8.10;;;7.30;;
43996;SDS011;34318;45.818;15.964;2023-05-19T10:05:45;7.75;;;6.53;;
43996;SDS011;34318;45.818;15.964;2023-05-19T10:08:12;8.35;;;6.47;;
43996;SDS011;34318;45.818;15.964;2023-05-19T10:10:39;13.32;;;9.68;;
43996;SDS011;34318;45.818;15.964;2023-05-19T10:13:07;17.05;;;13.43;;
43996;SDS011;34318;45.818;15.964;2023-05-19T10:15:34;17.70;;;15.88;;
43996;SDS011;34318;45.818;15.964;2023-05-19T10:18:21;16.50;;;14.98;;
43996;SDS011;34318;45.818;15.964;2023-05-19T10:20:48;17.50;;;15.55;;
43996;SDS011;34318;45.818;15.964;2023-05-19T10:23:16;16.90;;;15.10;;
43996;SDS011;34318;45.818;15.964;2023-05-19T10:25:43;16.55;;;14.95;;
43996;SDS011;34318;45.818;15.964;2023-05-19T10:28:12;15.65;;;14.05;;
43996;SDS011;34318;45.818;15.964;2023-05-19T10:30:40;14.45;;;12.88;;
43996;SDS011;34318;45.818;15.964;2023-05-19T10:33:09;13.52;;;12.32;;
43996;SDS011;34318;45.818;15.964;2023-05-19T10:35:44;12.85;;;11.63;;
43996;SDS011;34318;45.818;15.964;2023-05-19T10:38:23;11.82;;;10.82;;
43996;SDS011;34318;45.818;15.964;2023-05-19T10:40:55;12.50;;;11.40;;
43996;SDS011;34318;45.818;15.964;2023-05-19T10:45:54;10.82;;;9.63;;
43996;SDS011;34318;45.818;15.964;2023-05-19T10:48:21;12.07;;;10.98;;
43996;SDS011;34318;45.818;15.964;2023-05-19T10:50:51;12.70;;;11.50;;
43996;SDS011;34318;45.818;15.964;2023-05-19T10:53:19;10.50;;;9.60;;
43996;SDS011;34318;45.818;15.964;2023-05-19T10:55:51;10.45;;;9.45;;
43996;SDS011;34318;45.818;15.964;2023-05-19T10:58:35;10.77;;;9.77;;
43996;SDS011;34318;45.818;15.964;2023-05-19T11:03:46;10.02;;;9.13;;
43996;SDS011;34318;45.818;15.964;2023-05-19T11:06:24;9.65;;;8.65;;
43996;SDS011;34318;45.818;15.964;2023-05-19T11:08:53;10.73;;;9.63;;
43996;SDS011;34318;45.818;15.964;2023-05-19T11:11:20;10.20;;;9.20;;
43996;SDS011;34318;45.818;15.964;2023-05-19T11:13:52;11.02;;;10.02;;
43996;SDS011;34318;45.818;15.964;2023-05-19T11:16:26;10.38;;;9.38;;
43996;SDS011;34318;45.818;15.964;2023-05-19T11:18:54;11.55;;;10.45;;
43996;SDS011;34318;45.818;15.964;2023-05-19T11:21:22;15.02;;;11.45;;
43996;SDS011;34318;45.818;15.964;2023-05-19T11:23:52;14.05;;;11.98;;
43996;SDS011;34318;45.818;15.964;2023-05-19T11:26:38;14.57;;;12.15;;
43996;SDS011;34318;45.818;15.964;2023-05-19T11:29:07;13.90;;;12.50;;
43996;SDS011;34318;45.818;15.964;2023-05-19T11:31:34;21.10;;;18.98;;
43996;SDS011;34318;45.818;15.964;2023-05-19T11:34:02;19.38;;;17.58;;
43996;SDS011;34318;45.818;15.964;2023-05-19T11:36:32;24.88;;;17.00;;
43996;SDS011;34318;45.818;15.964;2023-05-19T11:39:00;15.55;;;13.95;;
43996;SDS011;34318;45.818;15.964;2023-05-19T11:41:28;16.77;;;14.60;;
43996;SDS011;34318;45.818;15.964;2023-05-19T11:43:56;16.50;;;14.20;;
43996;SDS011;34318;45.818;15.964;2023-05-19T11:46:23;13.70;;;12.40;;
43996;SDS011;34318;45.818;15.964;2023-05-19T11:48:52;14.85;;;13.23;;
43996;SDS011;34318;45.818;15.964;2023-05-19T11:51:19;17.05;;;12.57;;
43996;SDS011;34318;45.818;15.964;2023-05-19T11:53:48;14.35;;;11.90;;
43996;SDS011;34318;45.818;15.964;2023-05-19T11:56:15;16.08;;;12.55;;
43996;SDS011;34318;45.818;15.964;2023-05-19T11:58:42;23.58;;;17.05;;
43996;SDS011;34318;45.818;15.964;2023-05-19T12:01:09;98.38;;;43.60;;
43996;SDS011;34318;45.818;15.964;2023-05-19T12:03:36;175.38;;;64.55;;
43996;SDS011;34318;45.818;15.964;2023-05-19T12:06:04;114.78;;;49.15;;
43996;SDS011;34318;45.818;15.964;2023-05-19T12:08:33;86.80;;;41.28;;
43996;SDS011;34318;45.818;15.964;2023-05-19T12:11:01;90.43;;;40.92;;
43996;SDS011;34318;45.818;15.964;2023-05-19T12:13:28;86.18;;;41.25;;
43996;SDS011;34318;45.818;15.964;2023-05-19T12:15:58;92.68;;;41.60;;
43996;SDS011;34318;45.818;15.964;2023-05-19T12:18:29;82.50;;;39.97;;
43996;SDS011;34318;45.818;15.964;2023-05-19T12:20:57;79.93;;;38.60;;
43996;SDS011;34318;45.818;15.964;2023-05-19T12:23:24;76.18;;;40.35;;
43996;SDS011;34318;45.818;15.964;2023-05-19T12:25:58;82.32;;;40.88;;
43996;SDS011;34318;45.818;15.964;2023-05-19T12:28:28;67.15;;;38.60;;
43996;SDS011;34318;45.818;15.964;2023-05-19T12:30:56;66.25;;;35.13;;
43996;SDS011;34318;45.818;15.964;2023-05-19T12:33:23;73.10;;;37.20;;
43996;SDS011;34318;45.818;15.964;2023-05-19T12:35:52;77.55;;;39.13;;
43996;SDS011;34318;45.818;15.964;2023-05-19T12:38:21;70.05;;;39.20;;
43996;SDS011;34318;45.818;15.964;2023-05-19T12:40:48;67.03;;;35.30;;
43996;SDS011;34318;45.818;15.964;2023-05-19T12:43:19;78.22;;;35.83;;
43996;SDS011;34318;45.818;15.964;2023-05-19T12:45:47;73.50;;;36.22;;
43996;SDS011;34318;45.818;15.964;2023-05-19T12:48:14;71.78;;;36.70;;
43996;SDS011;34318;45.818;15.964;2023-05-19T12:50:42;69.53;;;35.60;;
43996;SDS011;34318;45.818;15.964;2023-05-19T12:53:10;63.50;;;33.65;;
43996;SDS011;34318;45.818;15.964;2023-05-19T12:55:39;60.30;;;31.80;;
43996;SDS011;34318;45.818;15.964;2023-05-19T12:58:07;53.20;;;29.88;;
43996;SDS011;34318;45.818;15.964;2023-05-19T13:00:43;66.43;;;31.73;;
43996;SDS011;34318;45.818;15.964;2023-05-19T13:03:17;59.45;;;29.73;;
43996;SDS011;34318;45.818;15.964;2023-05-19T13:05:45;52.53;;;29.60;;
43996;SDS011;34318;45.818;15.964;2023-05-19T13:08:13;53.17;;;29.40;;
43996;SDS011;34318;45.818;15.964;2023-05-19T13:10:42;56.45;;;29.05;;
43996;SDS011;34318;45.818;15.964;2023-05-19T13:13:09;58.03;;;29.92;;
43996;SDS011;34318;45.818;15.964;2023-05-19T13:15:37;53.42;;;27.00;;
43996;SDS011;34318;45.818;15.964;2023-05-19T13:18:06;55.83;;;28.63;;
43996;SDS011;34318;45.818;15.964;2023-05-19T13:20:36;49.47;;;26.65;;
43996;SDS011;34318;45.818;15.964;2023-05-19T13:23:04;51.67;;;27.45;;
43996;SDS011;34318;45.818;15.964;2023-05-19T13:25:32;54.65;;;27.38;;
43996;SDS011;34318;45.818;15.964;2023-05-19T13:28:00;44.53;;;25.55;;
43996;SDS011;34318;45.818;15.964;2023-05-19T13:30:30;39.55;;;24.00;;
43996;SDS011;34318;45.818;15.964;2023-05-19T13:32:58;48.63;;;26.10;;
43996;SDS011;34318;45.818;15.964;2023-05-19T13:35:25;50.47;;;25.95;;
43996;SDS011;34318;45.818;15.964;2023-05-19T13:37:53;46.97;;;24.83;;
43996;SDS011;34318;45.818;15.964;2023-05-19T13:40:20;47.38;;;26.23;;
43996;SDS011;34318;45.818;15.964;2023-05-19T13:42:49;47.72;;;26.95;;
43996;SDS011;34318;45.818;15.964;2023-05-19T13:45:16;43.80;;;23.95;;
43996;SDS011;34318;45.818;15.964;2023-05-19T13:47:43;37.05;;;23.80;;
43996;SDS011;34318;45.818;15.964;2023-05-19T13:50:10;51.50;;;26.00;;
43996;SDS011;34318;45.818;15.964;2023-05-19T13:52:38;50.50;;;25.38;;
43996;SDS011;34318;45.818;15.964;2023-05-19T13:55:05;50.17;;;25.77;;
43996;SDS011;34318;45.818;15.964;2023-05-19T13:57:32;40.78;;;23.17;;
43996;SDS011;34318;45.818;15.964;2023-05-19T14:00:00;43.67;;;25.15;;
43996;SDS011;34318;45.818;15.964;2023-05-19T14:02:29;44.53;;;23.23;;
43996;SDS011;34318;45.818;15.964;2023-05-19T14:04:57;46.53;;;24.70;;
43996;SDS011;34318;45.818;15.964;2023-05-19T14:07:24;40.90;;;23.88;;
43996;SDS011;34318;45.818;15.964;2023-05-19T14:09:52;41.58;;;23.27;;
43996;SDS011;34318;45.818;15.964;2023-05-19T14:12:19;48.58;;;24.42;;
43996;SDS011;34318;45.818;15.964;2023-05-19T14:14:59;39.10;;;23.10;;
43996;SDS011;34318;45.818;15.964;2023-05-19T14:17:27;40.15;;;23.73;;
43996;SDS011;34318;45.818;15.964;2023-05-19T14:19:54;44.53;;;24.02;;
43996;SDS011;34318;45.818;15.964;2023-05-19T14:22:21;39.58;;;22.35;;
43996;SDS011;34318;45.818;15.964;2023-05-19T14:24:48;37.20;;;22.13;;
43996;SDS011;34318;45.818;15.964;2023-05-19T14:27:16;37.38;;;21.52;;
43996;SDS011;34318;45.818;15.964;2023-05-19T14:29:43;43.95;;;23.48;;
43996;SDS011;34318;45.818;15.964;2023-05-19T14:32:10;35.83;;;22.27;;
43996;SDS011;34318;45.818;15.964;2023-05-19T14:34:38;43.10;;;22.90;;
43996;SDS011;34318;45.818;15.964;2023-05-19T14:37:05;37.85;;;23.00;;
43996;SDS011;34318;45.818;15.964;2023-05-19T14:39:32;39.97;;;22.92;;
43996;SDS011;34318;45.818;15.964;2023-05-19T14:41:59;42.75;;;23.15;;
43996;SDS011;34318;45.818;15.964;2023-05-19T14:44:30;39.72;;;21.50;;
43996;SDS011;34318;45.818;15.964;2023-05-19T14:47:02;44.15;;;23.58;;
43996;SDS011;34318;45.818;15.964;2023-05-19T14:49:30;40.90;;;21.80;;
43996;SDS011;34318;45.818;15.964;2023-05-19T14:51:57;38.83;;;22.27;;
43996;SDS011;34318;45.818;15.964;2023-05-19T14:54:24;35.95;;;21.63;;
43996;SDS011;34318;45.818;15.964;2023-05-19T14:56:51;38.58;;;21.60;;
43996;SDS011;34318;45.818;15.964;2023-05-19T14:59:18;39.65;;;21.90;;